Time;durP1;ratioP1;P1;durP2;ratioP2;P2;SDS_P1;SDS_P2;PMS_P1;PMS_P2;Temp;Humidity;BMP_temperature;BMP_pressure;BME280_temperature;BME280_humidity;BME280_pressure;Samples;Min_cycle;Max_cycle;Signal;HPM_P1;HPM_P2
2022/02/27 00:00:07;;;;;;;8.75;3.92;;;;;;;3.50;69.42;101043.06;5078678;28;20023;-77
2022/02/27 00:02:33;;;;;;;9.82;3.35;;;;;;;3.48;69.33;101036.13;5087430;28;20023;-76
2022/02/27 00:04:59;;;;;;;6.88;3.33;;;;;;;3.44;69.75;101033.03;5067885;28;20035;-77
2022/02/27 00:07:24;;;;;;;10.63;3.70;;;;;;;3.41;69.70;101035.41;5025776;28;20036;-77
2022/02/27 00:09:50;;;;;;;8.52;3.80;;;;;;;3.41;69.81;101032.66;5057003;28;20029;-77
2022/02/27 00:12:15;;;;;;;9.02;3.40;;;;;;;3.36;69.89;101030.63;5065318;28;20503;-77
2022/02/27 00:14:41;;;;;;;7.40;3.45;;;;;;;3.35;69.75;101026.22;5059280;28;20067;-77
2022/02/27 00:17:07;;;;;;;5.13;3.22;;;;;;;3.33;70.29;101031.91;5064141;28;20029;-77
2022/02/27 00:19:33;;;;;;;6.50;3.75;;;;;;;3.30;69.95;101021.41;5062507;28;20063;-77
2022/02/27 00:21:58;;;;;;;8.68;3.35;;;;;;;3.28;70.16;101026.28;5065559;28;20104;-77
2022/02/27 00:24:24;;;;;;;4.70;3.25;;;;;;;3.27;70.21;101018.28;5045321;28;20028;-77
2022/02/27 00:26:49;;;;;;;7.22;3.42;;;;;;;3.26;70.05;101011.13;5063590;28;20047;-77
2022/02/27 00:29:15;;;;;;;9.02;3.55;;;;;;;3.23;69.82;101014.31;5027605;28;20036;-77
2022/02/27 00:31:40;;;;;;;6.75;3.17;;;;;;;3.23;70.28;101015.19;5031866;28;20087;-77
2022/02/27 00:34:06;;;;;;;8.00;3.50;;;;;;;3.22;69.97;101009.91;5067168;28;20058;-76
2022/02/27 00:36:32;;;;;;;7.95;3.60;;;;;;;3.18;70.21;101012.31;5046254;28;20021;-77
2022/02/27 00:38:57;;;;;;;9.43;3.40;;;;;;;3.17;70.48;101007.03;5060773;28;20035;-77
2022/02/27 00:41:23;;;;;;;10.25;3.42;;;;;;;3.16;70.34;101003.47;5060020;28;20028;-77
2022/02/27 00:43:48;;;;;;;9.43;3.20;;;;;;;3.16;70.59;101008.94;5058778;28;20028;-76
2022/02/27 00:46:14;;;;;;;6.05;3.20;;;;;;;3.11;70.79;101006.88;5044648;28;20025;-77
2022/02/27 00:48:39;;;;;;;7.70;3.60;;;;;;;3.13;70.51;101009.41;5054807;28;20039;-77
2022/02/27 00:51:05;;;;;;;8.90;3.50;;;;;;;3.08;71.06;100998.28;5047442;28;20024;-76
2022/02/27 00:53:31;;;;;;;5.60;3.30;;;;;;;3.05;70.86;101002.34;5043592;28;20060;-77
2022/02/27 00:55:56;;;;;;;5.97;3.35;;;;;;;3.07;71.10;101005.69;5044456;28;20024;-77
2022/02/27 00:58:22;;;;;;;6.03;3.38;;;;;;;3.07;71.07;100999.38;5044541;28;20025;-77
2022/02/27 01:00:47;;;;;;;9.05;3.25;;;;;;;3.04;70.83;101005.31;5030692;28;20028;-77
2022/02/27 01:03:13;;;;;;;8.80;3.50;;;;;;;3.04;70.62;101000.66;5045682;28;20480;-77
2022/02/27 01:05:38;;;;;;;7.22;3.55;;;;;;;3.05;70.95;100993.28;5030261;28;20033;-77
2022/02/27 01:08:04;;;;;;;5.80;2.97;;;;;;;3.01;70.90;100994.78;5073884;28;20044;-77
2022/02/27 01:10:30;;;;;;;8.90;3.25;;;;;;;2.99;71.34;101010.66;5051505;28;20115;-77
2022/02/27 01:12:55;;;;;;;10.25;3.45;;;;;;;2.98;71.09;101004.34;5040632;28;20036;-77
2022/02/27 01:15:21;;;;;;;6.72;3.88;;;;;;;2.98;71.09;100998.00;5086233;28;20052;-77
2022/02/27 01:17:47;;;;;;;5.47;2.90;;;;;;;2.97;71.39;101010.06;5006680;28;20378;-76
2022/02/27 01:20:13;;;;;;;8.93;3.80;;;;;;;2.96;71.21;101008.38;5025501;28;20048;-77
2022/02/27 01:22:38;;;;;;;6.00;2.88;;;;;;;2.95;71.16;101012.19;5040033;28;20497;-77
2022/02/27 01:25:05;;;;;;;5.22;3.25;;;;;;;2.93;71.62;101015.19;5040057;28;20029;-77
2022/02/27 01:27:31;;;;;;;7.20;3.17;;;;;;;2.91;71.68;101001.69;5039380;28;20043;-77
2022/02/27 01:29:57;;;;;;;10.02;3.97;;;;;;;2.90;71.80;101005.50;5077624;28;20029;-77
2022/02/27 01:32:22;;;;;;;10.75;4.15;;;;;;;2.89;71.67;101009.28;5059297;28;20489;-77
2022/02/27 01:34:48;;;;;;;7.78;3.38;;;;;;;2.88;71.80;101006.78;5073477;28;20042;-77
2022/02/27 01:37:15;;;;;;;8.10;3.85;;;;;;;2.85;71.82;101008.09;5042806;28;20074;-77
2022/02/27 01:39:41;;;;;;;6.90;3.40;;;;;;;2.84;72.26;101006.44;5041414;28;20048;-77
2022/02/27 01:42:13;;;;;;;7.15;3.40;;;;;;;2.83;72.13;100999.25;5061318;28;20037;-77
2022/02/27 01:44:42;;;;;;;5.65;2.85;;;;;;;2.83;72.03;101007.47;5053341;28;20040;-77
2022/02/27 01:47:08;;;;;;;6.43;3.22;;;;;;;2.82;72.23;101005.81;5038641;28;20025;-77
2022/02/27 01:49:34;;;;;;;6.82;3.55;;;;;;;2.81;72.14;101006.88;5057170;28;20029;-77
2022/02/27 01:51:59;;;;;;;11.90;3.63;;;;;;;2.79;72.42;101006.28;5058489;28;20025;-77
2022/02/27 01:54:25;;;;;;;9.80;3.80;;;;;;;2.78;72.68;101007.31;5042993;28;20060;-77
2022/02/27 01:56:50;;;;;;;6.93;3.55;;;;;;;2.73;72.85;100998.97;5014191;28;20032;-77
2022/02/27 01:59:16;;;;;;;8.13;3.72;;;;;;;2.75;72.65;101007.78;5039369;28;20473;-76
2022/02/27 02:01:42;;;;;;;6.28;3.38;;;;;;;2.76;72.58;101003.13;5063966;28;20035;-77
2022/02/27 02:04:18;;;;;;;7.53;3.67;;;;;;;2.73;72.88;100998.13;5060273;28;20048;-77
2022/02/27 02:06:44;;;;;;;8.68;3.85;;;;;;;2.70;73.00;100988.44;5043083;28;20064;-77
2022/02/27 02:09:16;;;;;;;7.70;4.13;;;;;;;2.68;73.27;100996.09;5034509;28;20026;-77
2022/02/27 02:11:41;;;;;;;9.07;3.83;;;;;;;2.68;73.13;101001.56;5029315;28;20037;-77
2022/02/27 02:14:07;;;;;;;9.80;3.92;;;;;;;2.63;73.42;100990.44;5047084;28;20043;-77
2022/02/27 02:16:46;;;;;;;10.25;3.83;;;;;;;2.66;73.13;101000.94;5045467;28;20074;-77
2022/02/27 02:19:16;;;;;;;7.95;3.80;;;;;;;2.64;73.26;100994.84;5030708;28;20033;-77
2022/02/27 02:21:46;;;;;;;8.88;4.07;;;;;;;2.61;73.49;100987.91;5055825;28;20031;-77
2022/02/27 02:24:12;;;;;;;6.30;3.78;;;;;;;2.60;73.54;100983.50;5055083;28;20035;-77
2022/02/27 02:26:38;;;;;;;6.30;3.50;;;;;;;2.58;73.85;100993.88;5061702;28;23875;-77
2022/02/27 02:29:07;;;;;;;10.00;4.07;;;;;;;2.54;73.89;100983.59;5056964;28;20036;-77
2022/02/27 02:31:36;;;;;;;7.47;3.63;;;;;;;2.54;74.08;100989.91;5042218;28;20024;-77
2022/02/27 02:34:09;;;;;;;11.13;3.47;;;;;;;2.54;74.12;100992.66;5027919;28;20112;-77
2022/02/27 02:36:34;;;;;;;;;;;;;;;2.52;73.95;100993.94;5033432;28;20024;-77
2022/02/27 02:39:00;;;;;;;5.30;3.55;;;;;;;2.53;74.19;101003.84;5041208;28;19919;-77
2022/02/27 02:41:25;;;;;;;8.40;3.65;;;;;;;2.47;74.51;100998.19;5048965;28;20033;-77
2022/02/27 02:43:51;;;;;;;8.80;3.70;;;;;;;2.43;74.61;100998.91;5023686;28;20025;-76
2022/02/27 02:46:16;;;;;;;7.65;4.03;;;;;;;2.44;74.62;101004.16;5030465;28;20028;-77
2022/02/27 02:48:42;;;;;;;6.10;3.55;;;;;;;2.42;74.88;100999.97;5037708;28;20033;-77
2022/02/27 02:51:07;;;;;;;5.85;3.63;;;;;;;2.41;74.84;100995.56;5044228;28;20077;-77
2022/02/27 02:53:34;;;;;;;9.38;3.88;;;;;;;2.39;74.91;100992.19;5014271;28;20035;-77
2022/02/27 02:56:01;;;;;;;8.82;3.88;;;;;;;2.40;75.11;100988.41;5052843;28;20440;-77
2022/02/27 02:58:27;;;;;;;9.70;3.45;;;;;;;2.37;75.06;100981.47;5013589;28;20036;-77
2022/02/27 03:00:52;;;;;;;7.47;3.92;;;;;;;2.34;75.28;100986.56;5040505;28;20029;-77
2022/02/27 03:03:18;;;;;;;8.07;3.70;;;;;;;2.33;75.18;100988.47;5024893;28;20032;-77
2022/02/27 03:05:43;;;;;;;6.72;3.55;;;;;;;2.32;75.57;100981.31;5042103;28;20024;-77
2022/02/27 03:08:09;;;;;;;7.35;3.78;;;;;;;2.29;75.64;100979.03;5045486;28;20499;-77
2022/02/27 03:10:34;;;;;;;7.30;4.13;;;;;;;2.29;75.35;100979.03;5050546;28;20029;-78
2022/02/27 03:13:00;;;;;;;11.18;4.07;;;;;;;2.26;75.85;100981.38;5055664;28;20029;-77
2022/02/27 03:15:25;;;;;;;8.48;3.80;;;;;;;2.25;76.00;100969.56;5055610;28;20059;-77
2022/02/27 03:17:51;;;;;;;6.35;4.00;;;;;;;2.20;75.93;100972.16;5043692;28;20392;-77
2022/02/27 03:20:16;;;;;;;9.38;3.53;;;;;;;2.17;76.27;100962.50;5033342;28;20033;-77
2022/02/27 03:22:41;;;;;;;8.45;3.83;;;;;;;2.17;76.26;100968.00;5048300;28;20149;-77
2022/02/27 03:25:07;;;;;;;6.95;3.90;;;;;;;2.16;76.46;100960.81;5018567;28;20029;-76
2022/02/27 03:27:33;;;;;;;8.13;3.65;;;;;;;2.10;76.51;100958.16;5021163;28;20441;-77
2022/02/27 03:29:58;;;;;;;8.00;3.53;;;;;;;2.10;76.74;100963.63;5048967;28;20029;-77
2022/02/27 03:32:24;;;;;;;8.13;4.45;;;;;;;2.10;76.71;100953.50;5048024;28;20021;-77
2022/02/27 03:34:49;;;;;;;8.70;3.63;;;;;;;2.10;76.82;100963.63;5048745;28;20025;-77
2022/02/27 03:37:15;;;;;;;5.78;3.50;;;;;;;2.05;77.03;100958.00;5027643;28;20401;-77
2022/02/27 03:39:40;;;;;;;8.00;4.35;;;;;;;2.05;77.04;100958.00;5030552;28;20025;-77
2022/02/27 03:42:06;;;;;;;6.72;3.95;;;;;;;2.00;77.11;100954.03;5046750;28;20127;-77
2022/02/27 03:44:31;;;;;;;7.38;4.00;;;;;;;2.01;77.32;100949.41;5025380;28;20037;-77
2022/02/27 03:46:57;;;;;;;6.78;4.30;;;;;;;2.01;77.37;100960.38;5039993;28;20033;-76
2022/02/27 03:49:22;;;;;;;8.18;3.83;;;;;;;1.99;77.41;100955.09;5053776;28;20037;-77
2022/02/27 03:51:48;;;;;;;7.35;3.90;;;;;;;1.94;77.78;100954.94;5012367;28;20090;-76
2022/02/27 03:54:13;;;;;;;9.70;4.00;;;;;;;1.94;77.63;100951.38;5056280;28;20041;-77
2022/02/27 03:56:39;;;;;;;9.38;4.35;;;;;;;1.94;77.67;100951.38;5047377;28;20063;-77
2022/02/27 03:59:04;;;;;;;8.02;3.95;;;;;;;1.93;77.76;100947.78;5025664;28;20029;-77
2022/02/27 04:01:29;;;;;;;9.93;3.92;;;;;;;1.92;77.61;100946.13;5035596;28;20025;-77
2022/02/27 04:03:55;;;;;;;6.35;3.65;;;;;;;1.92;77.76;100937.91;5037629;28;20035;-78
2022/02/27 04:06:20;;;;;;;7.72;4.05;;;;;;;1.90;77.76;100942.75;5065633;28;20070;-77
2022/02/27 04:08:46;;;;;;;10.38;4.25;;;;;;;1.88;77.95;100938.56;5057037;28;20067;-77
2022/02/27 04:11:11;;;;;;;8.43;3.83;;;;;;;1.89;77.97;100942.97;5055447;28;20453;-77
2022/02/27 04:13:37;;;;;;;9.77;4.05;;;;;;;1.88;77.91;100947.63;5057425;28;20029;-77
2022/02/27 04:16:02;;;;;;;8.63;3.90;;;;;;;1.86;78.03;100947.00;5078222;28;20033;-77
2022/02/27 04:18:28;;;;;;;7.63;3.80;;;;;;;1.86;77.73;100944.25;5073894;28;20029;-77
2022/02/27 04:20:54;;;;;;;9.27;3.90;;;;;;;1.81;78.18;100949.56;5082324;28;20067;-77
2022/02/27 04:23:19;;;;;;;9.35;4.20;;;;;;;1.82;78.21;100951.28;5074325;28;20028;-77
2022/02/27 04:25:45;;;;;;;7.30;3.92;;;;;;;1.82;78.25;100944.97;5082845;28;20849;-77
2022/02/27 04:28:10;;;;;;;7.68;4.05;;;;;;;1.78;78.51;100939.94;5012467;28;20109;-77
2022/02/27 04:30:36;;;;;;;8.95;3.92;;;;;;;1.79;78.41;100943.50;5073630;28;20033;-77
2022/02/27 04:33:02;;;;;;;7.95;3.95;;;;;;;1.76;78.36;100942.06;5074468;28;20037;-77
2022/02/27 04:35:29;;;;;;;9.88;3.78;;;;;;;1.74;78.43;100946.09;5075282;28;20468;-77
2022/02/27 04:37:54;;;;;;;7.63;3.90;;;;;;;1.72;78.82;100942.72;5057907;28;20025;-77
2022/02/27 04:40:19;;;;;;;5.82;3.53;;;;;;;1.69;78.64;100943.19;5075659;28;20035;-77
2022/02/27 04:42:45;;;;;;;11.25;4.07;;;;;;;1.72;78.79;100945.47;5063192;28;20032;-77
2022/02/27 04:45:10;;;;;;;9.30;4.32;;;;;;;1.71;78.66;100943.78;5063207;28;20040;-77
2022/02/27 04:47:36;;;;;;;6.85;3.80;;;;;;;1.69;78.80;100944.00;5061738;28;20469;-76
2022/02/27 04:50:03;;;;;;;9.70;3.50;;;;;;;1.69;78.91;100948.66;5057644;28;20028;-77
2022/02/27 04:52:28;;;;;;;6.45;3.70;;;;;;;1.68;78.88;100947.81;5066041;28;20465;-77
2022/02/27 04:54:54;;;;;;;7.05;3.90;;;;;;;1.65;78.98;100958.41;5045394;28;20117;-77
2022/02/27 04:57:19;;;;;;;10.07;3.97;;;;;;;1.65;78.86;100951.00;5063919;28;20528;-77
2022/02/27 04:59:45;;;;;;;9.95;4.05;;;;;;;1.65;78.97;100961.13;5059259;28;20068;-77
2022/02/27 05:02:10;;;;;;;8.27;3.85;;;;;;;1.61;79.03;100970.84;5040449;28;20525;-77
2022/02/27 05:04:36;;;;;;;8.20;3.83;;;;;;;1.61;79.06;100963.47;5085398;28;20476;-77
2022/02/27 05:07:03;;;;;;;8.90;3.92;;;;;;;1.61;79.03;100963.47;5088265;28;20048;-77
2022/02/27 05:09:29;;;;;;;6.95;3.88;;;;;;;1.59;79.24;100964.75;5064969;28;20488;-77
2022/02/27 05:11:55;;;;;;;6.90;3.70;;;;;;;1.60;79.30;100956.31;5044180;28;20431;-77
2022/02/27 05:14:21;;;;;;;6.82;3.92;;;;;;;1.57;79.33;100964.97;5075943;28;20040;-76
2022/02/27 05:16:46;;;;;;;6.35;3.80;;;;;;;1.56;79.43;100966.88;5079199;28;20016;-76
2022/02/27 05:19:13;;;;;;;7.13;4.18;;;;;;;1.55;79.18;100961.63;5082261;28;20036;-77
2022/02/27 05:21:39;;;;;;;9.45;3.67;;;;;;;1.53;79.36;100961.84;5095723;28;20028;-77
2022/02/27 05:24:04;;;;;;;7.38;3.95;;;;;;;1.50;79.52;100965.00;5067488;28;20077;-77
2022/02/27 05:26:30;;;;;;;11.18;3.80;;;;;;;1.48;79.61;100956.22;5050078;28;20028;-77
2022/02/27 05:28:55;;;;;;;7.05;3.67;;;;;;;1.42;79.70;100961.72;5071067;28;20084;-76
2022/02/27 05:31:21;;;;;;;8.07;4.20;;;;;;;1.46;79.93;100965.69;5081151;28;20028;-77
2022/02/27 05:33:47;;;;;;;10.30;3.80;;;;;;;1.43;79.80;100966.16;5034951;28;20066;-77
2022/02/27 05:36:12;;;;;;;9.07;4.10;;;;;;;1.44;80.19;100963.19;5050277;28;20024;-77
2022/02/27 05:38:38;;;;;;;8.63;4.00;;;;;;;1.42;80.16;100954.38;5061887;28;20039;-77
2022/02/27 05:41:03;;;;;;;7.97;3.42;;;;;;;1.40;80.31;100964.69;5051438;28;20025;-76
2022/02/27 05:43:29;;;;;;;10.13;4.82;;;;;;;1.41;80.52;100966.34;5076551;28;20085;-76
2022/02/27 05:45:54;;;;;;;12.57;4.32;;;;;;;1.42;80.23;100961.72;5065164;28;20058;-77
2022/02/27 05:48:20;;;;;;;8.35;4.70;;;;;;;1.39;80.46;100963.00;5062634;28;20035;-77
2022/02/27 05:50:45;;;;;;;9.43;4.07;;;;;;;1.39;80.43;100963.00;5058668;28;20036;-77
2022/02/27 05:53:11;;;;;;;8.02;3.85;;;;;;;1.39;80.54;100971.22;5065056;28;20191;-77
2022/02/27 05:55:36;;;;;;;7.72;4.20;;;;;;;1.41;80.61;100966.34;5099853;28;20036;-77
2022/02/27 05:58:02;;;;;;;8.57;4.43;;;;;;;1.41;80.75;100960.06;5061677;28;20024;-77
2022/02/27 06:00:28;;;;;;;9.90;4.40;;;;;;;1.41;80.77;100962.78;5082089;28;20035;-77
2022/02/27 06:02:53;;;;;;;8.70;3.97;;;;;;;1.38;80.67;100961.34;5074211;28;20519;-76
2022/02/27 06:05:19;;;;;;;6.90;3.97;;;;;;;1.38;80.82;100964.06;5066394;28;20035;-77
2022/02/27 06:07:44;;;;;;;7.85;4.20;;;;;;;1.35;80.85;100967.25;5080819;28;20052;-77
2022/02/27 06:10:10;;;;;;;8.18;4.43;;;;;;;1.36;81.06;100966.19;5053378;28;20084;-76
2022/02/27 06:12:35;;;;;;;7.47;4.20;;;;;;;1.37;80.78;100978.81;5083826;28;20024;-77
2022/02/27 06:15:01;;;;;;;6.03;3.97;;;;;;;1.35;80.91;100975.47;5077953;28;20034;-77
2022/02/27 06:17:26;;;;;;;7.80;4.13;;;;;;;1.34;81.09;100968.31;5059367;28;20029;-77
2022/02/27 06:19:52;;;;;;;6.75;3.90;;;;;;;1.34;80.97;100971.91;5083832;28;20020;-77
2022/02/27 06:22:17;;;;;;;9.05;4.20;;;;;;;1.32;81.21;100965.78;5050116;28;20036;-77
2022/02/27 06:24:43;;;;;;;7.25;4.00;;;;;;;1.34;81.26;100976.53;5081381;28;20472;-77
2022/02/27 06:27:08;;;;;;;10.57;3.78;;;;;;;1.31;81.27;100972.34;5066595;28;20035;-77
2022/02/27 06:29:34;;;;;;;7.13;4.18;;;;;;;1.31;81.18;100977.81;5046638;28;20031;-77
2022/02/27 06:31:59;;;;;;;7.55;4.15;;;;;;;1.31;81.43;100979.72;5025869;28;20032;-77
2022/02/27 06:34:25;;;;;;;9.70;4.32;;;;;;;1.30;81.33;100983.50;5042352;28;20020;-77
2022/02/27 06:36:51;;;;;;;8.30;4.45;;;;;;;1.30;81.34;100995.28;5051877;28;20031;-77
2022/02/27 06:39:16;;;;;;;9.10;3.45;;;;;;;1.32;81.26;100997.81;5082183;28;20036;-77
2022/02/27 06:41:41;;;;;;;11.77;4.53;;;;;;;1.30;81.35;101006.22;5066076;28;20040;-77
2022/02/27 06:44:07;;;;;;;9.35;4.10;;;;;;;1.31;81.33;100993.41;5076554;28;20040;-77
2022/02/27 06:46:32;;;;;;;7.22;3.80;;;;;;;1.31;81.39;101001.63;5063194;28;20020;-77
2022/02/27 06:48:58;;;;;;;9.80;4.18;;;;;;;1.31;81.66;101007.91;5048795;28;20032;-77
2022/02/27 06:51:25;;;;;;;8.27;4.18;;;;;;;1.26;81.58;101009.63;5024500;28;20021;-77
2022/02/27 06:53:50;;;;;;;8.75;4.38;;;;;;;1.26;81.51;101005.00;5062956;28;20036;-77
2022/02/27 06:56:16;;;;;;;9.73;4.15;;;;;;;1.28;81.50;101002.03;5089867;28;20032;-77
2022/02/27 06:58:41;;;;;;;10.85;4.00;;;;;;;1.28;81.72;101010.22;5045049;28;20094;-77
2022/02/27 07:01:07;;;;;;;7.38;3.92;;;;;;;1.29;81.65;101003.72;5075770;28;20055;-77
2022/02/27 07:03:32;;;;;;;7.15;4.13;;;;;;;1.26;81.86;100996.78;5078255;28;20024;-77
2022/02/27 07:05:58;;;;;;;9.40;4.43;;;;;;;1.26;81.70;101010.47;5063984;28;20081;-76
2022/02/27 07:08:23;;;;;;;8.98;4.57;;;;;;;1.27;82.03;101020.34;5067362;28;20046;-77
2022/02/27 07:10:49;;;;;;;11.48;4.25;;;;;;;1.29;81.63;101020.16;5084517;28;20024;-77
2022/02/27 07:13:14;;;;;;;8.65;4.20;;;;;;;1.28;82.03;101023.91;5062327;28;20036;-77
2022/02/27 07:15:40;;;;;;;10.60;4.30;;;;;;;1.33;82.13;101021.38;5077782;28;20039;-77
2022/02/27 07:18:05;;;;;;;8.63;4.50;;;;;;;1.32;82.29;101019.69;5064282;28;20024;-77
2022/02/27 07:20:31;;;;;;;7.78;4.40;;;;;;;1.35;82.23;101011.03;5047174;28;20036;-78
2022/02/27 07:22:56;;;;;;;10.52;4.40;;;;;;;1.39;82.58;101023.22;5077955;28;20032;-77
2022/02/27 07:25:22;;;;;;;8.50;4.07;;;;;;;1.47;82.58;101019.38;5058430;28;20507;-77
2022/02/27 07:27:47;;;;;;;7.45;3.97;;;;;;;1.56;82.24;101024.38;5046671;28;20464;-77
2022/02/27 07:30:13;;;;;;;8.63;4.32;;;;;;;1.70;82.18;101018.78;5046748;28;20024;-77
2022/02/27 07:32:38;;;;;;;7.00;3.90;;;;;;;1.76;81.81;101020.66;5063953;28;20047;-77
2022/02/27 07:35:04;;;;;;;7.90;4.65;;;;;;;1.83;81.99;101004.97;5052106;28;20368;-77
2022/02/27 07:37:30;;;;;;;11.40;4.38;;;;;;;1.84;82.11;101012.16;5028856;28;20024;-77
2022/02/27 07:39:56;;;;;;;8.25;4.47;;;;;;;1.91;82.02;101001.94;5063864;28;20039;-78
2022/02/27 07:42:21;;;;;;;8.73;4.57;;;;;;;1.92;82.00;101006.38;5027879;28;20017;-78
2022/02/27 07:44:47;;;;;;;10.05;4.55;;;;;;;2.04;81.68;101002.91;5064138;28;20089;-77
2022/02/27 07:47:12;;;;;;;9.60;4.32;;;;;;;2.14;81.16;100998.56;5059718;28;20031;-77
2022/02/27 07:49:38;;;;;;;7.82;4.43;;;;;;;2.24;80.96;101001.63;5098401;28;20089;-77
2022/02/27 07:52:04;;;;;;;9.48;4.47;;;;;;;2.30;81.34;100999.88;5066671;28;20075;-77
2022/02/27 07:54:29;;;;;;;7.10;4.07;;;;;;;2.38;81.43;100991.34;5061271;28;20028;-77
2022/02/27 07:56:55;;;;;;;7.85;4.18;;;;;;;2.46;80.83;100990.22;5065151;28;20484;-77
2022/02/27 07:59:20;;;;;;;7.43;4.30;;;;;;;2.59;80.53;100983.72;5096728;28;20110;-78
2022/02/27 08:01:46;;;;;;;9.48;4.30;;;;;;;2.72;80.24;100978.09;5082625;28;20054;-77
2022/02/27 08:04:11;;;;;;;8.38;4.60;;;;;;;2.82;80.11;100981.13;5064380;28;20436;-78
2022/02/27 08:06:37;;;;;;;14.05;4.40;;;;;;;2.92;80.07;100986.03;5060181;28;20028;-77
2022/02/27 08:09:03;;;;;;;8.88;4.18;;;;;;;3.06;79.46;100992.19;5062654;28;20032;-77
2022/02/27 08:11:30;;;;;;;7.65;3.80;;;;;;;3.19;78.97;100992.00;5060865;28;20021;-77
2022/02/27 08:13:56;;;;;;;9.38;3.53;;;;;;;3.38;77.86;100989.22;5047363;28;20036;-77
2022/02/27 08:16:21;;;;;;;10.10;3.90;;;;;;;3.52;77.30;100990.66;5081612;28;20037;-77
2022/02/27 08:18:47;;;;;;;7.68;4.35;;;;;;;3.64;76.88;100988.78;5066678;28;20035;-77
2022/02/27 08:21:12;;;;;;;11.48;4.20;;;;;;;3.74;76.32;101000.03;5061760;28;20029;-77
2022/02/27 08:23:38;;;;;;;10.00;4.05;;;;;;;3.88;75.72;101002.56;5078526;28;20036;-77
2022/02/27 08:26:03;;;;;;;11.25;4.30;;;;;;;4.02;75.10;100999.31;5086458;28;20036;-77
2022/02/27 08:28:29;;;;;;;9.25;3.63;;;;;;;4.13;74.80;100999.56;5053145;28;20035;-77
2022/02/27 08:30:55;;;;;;;7.75;3.63;;;;;;;4.29;74.04;101000.75;5083228;28;20051;-77
2022/02/27 08:33:21;;;;;;;9.50;3.55;;;;;;;4.36;74.51;101006.97;5062902;28;20036;-77
2022/02/27 08:35:47;;;;;;;8.40;3.92;;;;;;;4.45;74.29;101011.00;5062603;28;20035;-76
2022/02/27 08:38:12;;;;;;;7.05;3.88;;;;;;;4.53;73.85;101013.41;5064716;28;20023;-76
2022/02/27 08:40:38;;;;;;;8.55;4.45;;;;;;;4.64;73.94;101009.78;5098981;28;20059;-76
2022/02/27 08:43:03;;;;;;;11.13;4.43;;;;;;;4.76;73.94;101018.00;5085185;28;20039;-77
2022/02/27 08:45:29;;;;;;;7.20;3.83;;;;;;;4.91;72.59;101020.25;5046338;28;20027;-79
2022/02/27 08:47:54;;;;;;;7.38;3.80;;;;;;;5.02;72.14;101022.13;5051719;28;20090;-78
2022/02/27 08:50:20;;;;;;;7.88;3.88;;;;;;;5.14;71.38;101028.41;5082262;28;20044;-78
2022/02/27 08:52:45;;;;;;;9.52;3.70;;;;;;;5.23;71.57;101020.59;5077496;28;20539;-79
2022/02/27 08:55:12;;;;;;;7.40;4.00;;;;;;;5.39;70.29;101021.72;5082676;28;20051;-81
2022/02/27 08:57:38;;;;;;;7.00;3.85;;;;;;;5.51;69.70;101022.50;5097911;28;20043;-78
2022/02/27 09:00:05;;;;;;;7.78;3.65;;;;;;;5.55;70.00;101018.19;5104427;27;20032;-78
2022/02/27 09:02:30;;;;;;;5.85;3.53;;;;;;;5.64;70.24;101020.53;5082820;28;20025;-79
2022/02/27 09:04:56;;;;;;;7.57;3.90;;;;;;;5.70;69.86;101012.09;5066147;28;20036;-78
2022/02/27 09:07:21;;;;;;;10.15;3.58;;;;;;;5.79;69.11;101007.84;5060307;28;20056;-78
2022/02/27 09:09:47;;;;;;;8.90;3.97;;;;;;;5.89;68.73;101026.47;5049393;28;20435;-78
2022/02/27 09:12:12;;;;;;;10.80;3.90;;;;;;;6.05;68.07;101024.84;5064757;28;20024;-78
2022/02/27 09:14:38;;;;;;;8.50;3.67;;;;;;;6.15;68.19;101030.50;5061545;28;20093;-77
2022/02/27 09:17:04;;;;;;;10.32;3.95;;;;;;;6.25;68.35;101035.34;5064774;28;20031;-78
2022/02/27 09:19:29;;;;;;;8.57;3.90;;;;;;;6.35;66.95;101042.94;5049512;28;20028;-76
2022/02/27 09:21:55;;;;;;;8.57;3.70;;;;;;;6.41;66.88;101042.78;5104232;28;20032;-78
2022/02/27 09:24:21;;;;;;;11.95;3.42;;;;;;;6.49;67.11;101036.81;5082227;28;20030;-77
2022/02/27 09:26:46;;;;;;;9.02;3.60;;;;;;;6.55;66.46;101039.66;5076923;28;20090;-77
2022/02/27 09:29:12;;;;;;;13.65;4.05;;;;;;;6.67;65.98;101048.66;5081088;28;20394;-78
2022/02/27 09:31:38;;;;;;;6.60;3.30;;;;;;;6.80;66.18;101053.81;5097424;28;20119;-78
2022/02/27 09:34:04;;;;;;;7.70;3.97;;;;;;;6.88;66.32;101056.13;5080863;28;20020;-78
2022/02/27 09:36:30;;;;;;;9.15;3.65;;;;;;;6.96;66.72;101052.06;5061977;28;20077;-78
2022/02/27 09:38:55;;;;;;;6.55;3.78;;;;;;;7.02;66.42;101045.53;5080733;28;20027;-78
2022/02/27 09:41:21;;;;;;;7.75;3.60;;;;;;;7.11;66.30;101051.44;5078349;28;20028;-77
2022/02/27 09:43:58;;;;;;;5.43;3.63;;;;;;;7.22;65.45;101055.97;5080850;28;20024;-78
2022/02/27 09:46:24;;;;;;;7.65;3.70;;;;;;;7.31;65.50;101059.94;5065557;28;20099;-78
2022/02/27 09:48:49;;;;;;;5.80;3.80;;;;;;;7.35;65.30;101057.50;5080769;28;20044;-77
2022/02/27 09:51:15;;;;;;;7.68;3.15;;;;;;;7.47;64.91;101062.88;5067239;28;20024;-78
2022/02/27 09:53:41;;;;;;;10.02;3.95;;;;;;;7.54;65.71;101057.97;5096827;28;20019;-78
2022/02/27 09:56:06;;;;;;;12.93;3.65;;;;;;;7.58;65.38;101064.66;5079390;28;20044;-77
2022/02/27 09:58:32;;;;;;;8.73;3.92;;;;;;;7.68;64.44;101073.03;5098929;28;20039;-78
2022/02/27 10:00:57;;;;;;;8.43;3.60;;;;;;;7.83;64.05;101072.38;5062956;28;20111;-78
2022/02/27 10:03:27;;;;;;;7.50;3.38;;;;;;;7.95;62.92;101064.72;5063935;28;20024;-77
2022/02/27 10:06:01;;;;;;;9.55;3.63;;;;;;;8.03;61.91;101068.97;5097657;28;20036;-78
2022/02/27 10:08:40;;;;;;;10.73;3.58;;;;;;;8.10;62.06;101071.50;5029810;28;20047;-79
2022/02/27 10:11:06;;;;;;;10.10;4.05;;;;;;;8.16;61.93;101082.34;5054997;28;20064;-79
2022/02/27 10:13:35;;;;;;;8.82;3.75;;;;;;;8.20;61.40;101071.59;5068756;28;20033;-79
2022/02/27 10:16:06;;;;;;;10.00;4.35;;;;;;;8.21;60.85;101078.78;5038763;28;20032;-78
2022/02/27 10:18:43;;;;;;;11.00;4.05;;;;;;;8.29;60.73;101078.28;5048542;28;20044;-78
2022/02/27 10:21:19;;;;;;;8.73;3.45;;;;;;;8.34;60.88;101083.03;5076723;28;20032;-78
2022/02/27 10:23:56;;;;;;;9.95;4.10;;;;;;;8.44;60.64;101083.13;5039079;28;20080;-79
2022/02/27 10:26:22;;;;;;;11.02;4.28;;;;;;;8.45;60.62;101079.28;5061916;28;20120;-79
2022/02/27 10:29:10;;;;;;;8.80;3.75;;;;;;;8.51;60.08;101083.75;5045433;28;20039;-79
2022/02/27 10:31:37;;;;;;;8.23;3.72;;;;;;;8.52;60.13;101079.88;5041196;28;20036;-79
2022/02/27 10:34:25;;;;;;;8.10;3.80;;;;;;;8.53;61.01;101075.19;5042080;28;20041;-79
2022/02/27 10:36:51;;;;;;;7.43;4.20;;;;;;;8.61;61.09;101081.06;5042494;28;20389;-78
2022/02/27 10:39:33;;;;;;;8.82;3.95;;;;;;;8.67;60.08;101077.22;5045584;28;20060;-79
2022/02/27 10:42:09;;;;;;;10.50;3.80;;;;;;;8.63;60.41;101081.59;5043504;28;20417;-79
2022/02/27 10:44:35;;;;;;;8.63;4.00;;;;;;;8.70;60.87;101075.84;5054954;28;20052;-79
2022/02/27 10:47:11;;;;;;;8.63;3.90;;;;;;;8.81;60.69;101082.28;5025527;28;20048;-79
2022/02/27 10:49:36;;;;;;;9.45;3.67;;;;;;;8.89;60.83;101073.47;5027349;28;20104;-79
2022/02/27 10:52:10;;;;;;;8.98;3.92;;;;;;;9.02;59.92;101077.66;5024669;28;20606;-79
2022/02/27 10:54:40;;;;;;;8.48;3.80;;;;;;;9.08;60.38;101082.97;5053143;28;20020;-79
2022/02/27 10:57:06;;;;;;;10.15;3.70;;;;;;;9.11;60.82;101085.19;5072734;28;20245;-79
2022/02/27 10:59:32;;;;;;;16.15;4.70;;;;;;;9.13;61.14;101077.44;5035271;28;20025;-79
2022/02/27 11:01:57;;;;;;;8.35;3.65;;;;;;;9.18;61.61;101074.69;5025594;28;20062;-78
2022/02/27 11:04:23;;;;;;;8.30;3.63;;;;;;;9.34;60.92;101088.63;5033885;28;20033;-78
2022/02/27 11:06:49;;;;;;;6.07;3.88;;;;;;;9.41;61.38;101086.41;5048379;28;20080;-79
2022/02/27 11:09:14;;;;;;;8.45;3.97;;;;;;;9.50;61.41;101089.47;5040323;28;20536;-79
2022/02/27 11:11:40;;;;;;;10.30;3.80;;;;;;;9.58;60.34;101087.03;5039751;28;20495;-79
2022/02/27 11:14:07;;;;;;;9.20;3.92;;;;;;;9.75;59.28;101085.94;5010891;28;20036;-79
2022/02/27 11:16:32;;;;;;;12.13;3.97;;;;;;;9.85;59.42;101091.50;5037237;28;20024;-81
2022/02/27 11:18:58;;;;;;;10.88;3.90;;;;;;;9.89;59.53;101097.34;5021811;28;20043;-73
2022/02/27 11:21:23;;;;;;;10.50;3.95;;;;;;;9.96;60.25;101084.88;5038809;28;20021;-74
2022/02/27 11:23:50;;;;;;;9.00;3.88;;;;;;;10.07;59.43;101086.53;5050344;28;20543;-74
2022/02/27 11:26:17;;;;;;;9.43;4.05;;;;;;;10.19;58.42;101080.69;5041722;28;20077;-74